sensor_id;sensor_type;location;lat;lon;timestamp;P1;durP1;ratioP1;P2;durP2;ratioP2
549;SDS011;20066;48.764;9.176;2023-06-26T00:00:19;14.40;;;9.87;;
549;SDS011;20066;48.764;9.176;2023-06-26T00:03:47;15.80;;;10.07;;
549;SDS011;20066;48.764;9.176;2023-06-26T00:07:13;15.67;;;8.57;;
549;SDS011;20066;48.764;9.176;2023-06-26T00:10:39;16.03;;;9.40;;
549;SDS011;20066;48.764;9.176;2023-06-26T00:14:07;15.13;;;9.40;;
549;SDS011;20066;48.764;9.176;2023-06-26T00:17:35;17.50;;;9.20;;
549;SDS011;20066;48.764;9.176;2023-06-26T00:21:03;13.03;;;8.77;;
549;SDS011;20066;48.764;9.176;2023-06-26T00:24:29;14.90;;;8.87;;
549;SDS011;20066;48.764;9.176;2023-06-26T00:27:56;17.00;;;9.37;;
549;SDS011;20066;48.764;9.176;2023-06-26T00:31:23;13.57;;;9.30;;
549;SDS011;20066;48.764;9.176;2023-06-26T00:34:50;20.73;;;9.37;;
549;SDS011;20066;48.764;9.176;2023-06-26T00:38:16;15.20;;;9.47;;
549;SDS011;20066;48.764;9.176;2023-06-26T00:41:42;17.60;;;9.20;;
549;SDS011;20066;48.764;9.176;2023-06-26T00:45:08;14.13;;;9.47;;
549;SDS011;20066;48.764;9.176;2023-06-26T00:48:38;15.83;;;8.73;;
549;SDS011;20066;48.764;9.176;2023-06-26T00:52:05;19.80;;;9.33;;
549;SDS011;20066;48.764;9.176;2023-06-26T00:55:31;20.60;;;9.93;;
549;SDS011;20066;48.764;9.176;2023-06-26T00:58:58;15.30;;;9.57;;
549;SDS011;20066;48.764;9.176;2023-06-26T01:02:25;13.30;;;8.50;;
549;SDS011;20066;48.764;9.176;2023-06-26T01:05:54;12.33;;;8.20;;
549;SDS011;20066;48.764;9.176;2023-06-26T01:09:22;15.10;;;9.00;;
549;SDS011;20066;48.764;9.176;2023-06-26T01:12:49;14.33;;;9.17;;
549;SDS011;20066;48.764;9.176;2023-06-26T01:16:17;13.43;;;8.40;;
549;SDS011;20066;48.764;9.176;2023-06-26T01:19:45;13.10;;;8.40;;
549;SDS011;20066;48.764;9.176;2023-06-26T01:23:14;15.03;;;8.67;;
549;SDS011;20066;48.764;9.176;2023-06-26T01:26:48;13.63;;;8.87;;
549;SDS011;20066;48.764;9.176;2023-06-26T01:30:16;14.80;;;8.93;;
549;SDS011;20066;48.764;9.176;2023-06-26T01:33:43;17.67;;;9.50;;
549;SDS011;20066;48.764;9.176;2023-06-26T01:37:11;15.20;;;9.13;;
549;SDS011;20066;48.764;9.176;2023-06-26T01:40:39;12.80;;;8.50;;
549;SDS011;20066;48.764;9.176;2023-06-26T01:44:14;16.03;;;9.00;;
549;SDS011;20066;48.764;9.176;2023-06-26T01:47:46;15.93;;;9.60;;
549;SDS011;20066;48.764;9.176;2023-06-26T01:51:20;14.50;;;9.47;;
549;SDS011;20066;48.764;9.176;2023-06-26T01:54:54;13.53;;;8.50;;
549;SDS011;20066;48.764;9.176;2023-06-26T01:58:27;13.27;;;8.60;;
549;SDS011;20066;48.764;9.176;2023-06-26T02:01:58;13.60;;;8.30;;
549;SDS011;20066;48.764;9.176;2023-06-26T02:05:26;15.23;;;9.43;;
549;SDS011;20066;48.764;9.176;2023-06-26T02:08:52;13.80;;;8.60;;
549;SDS011;20066;48.764;9.176;2023-06-26T02:12:19;13.50;;;8.30;;
549;SDS011;20066;48.764;9.176;2023-06-26T02:15:47;13.70;;;9.57;;
549;SDS011;20066;48.764;9.176;2023-06-26T02:19:13;12.43;;;8.43;;
549;SDS011;20066;48.764;9.176;2023-06-26T02:22:39;14.07;;;9.20;;
549;SDS011;20066;48.764;9.176;2023-06-26T02:26:06;15.13;;;9.40;;
549;SDS011;20066;48.764;9.176;2023-06-26T02:29:32;12.90;;;8.80;;
549;SDS011;20066;48.764;9.176;2023-06-26T02:33:00;12.77;;;8.50;;
549;SDS011;20066;48.764;9.176;2023-06-26T02:36:26;14.33;;;8.67;;
549;SDS011;20066;48.764;9.176;2023-06-26T02:39:52;14.60;;;8.90;;
549;SDS011;20066;48.764;9.176;2023-06-26T02:43:19;12.57;;;8.43;;
549;SDS011;20066;48.764;9.176;2023-06-26T02:46:45;12.77;;;8.33;;
549;SDS011;20066;48.764;9.176;2023-06-26T02:50:13;14.87;;;8.70;;
549;SDS011;20066;48.764;9.176;2023-06-26T02:53:39;13.10;;;8.33;;
549;SDS011;20066;48.764;9.176;2023-06-26T02:57:06;15.10;;;8.60;;
549;SDS011;20066;48.764;9.176;2023-06-26T03:00:32;15.03;;;8.40;;
549;SDS011;20066;48.764;9.176;2023-06-26T03:03:59;17.43;;;8.63;;
549;SDS011;20066;48.764;9.176;2023-06-26T03:07:27;11.40;;;8.10;;
549;SDS011;20066;48.764;9.176;2023-06-26T03:10:53;14.00;;;8.67;;
549;SDS011;20066;48.764;9.176;2023-06-26T03:14:21;13.23;;;8.50;;
549;SDS011;20066;48.764;9.176;2023-06-26T03:17:48;14.90;;;8.87;;
549;SDS011;20066;48.764;9.176;2023-06-26T03:21:14;15.40;;;9.10;;
549;SDS011;20066;48.764;9.176;2023-06-26T03:24:42;18.47;;;9.40;;
549;SDS011;20066;48.764;9.176;2023-06-26T03:28:09;14.10;;;9.47;;
549;SDS011;20066;48.764;9.176;2023-06-26T03:31:36;14.33;;;9.17;;
549;SDS011;20066;48.764;9.176;2023-06-26T03:35:02;18.03;;;9.27;;
549;SDS011;20066;48.764;9.176;2023-06-26T03:38:28;14.00;;;8.77;;
549;SDS011;20066;48.764;9.176;2023-06-26T03:41:56;14.00;;;8.23;;
549;SDS011;20066;48.764;9.176;2023-06-26T03:45:23;12.80;;;8.90;;
549;SDS011;20066;48.764;9.176;2023-06-26T03:48:49;13.93;;;8.80;;
549;SDS011;20066;48.764;9.176;2023-06-26T03:52:16;12.70;;;8.20;;
549;SDS011;20066;48.764;9.176;2023-06-26T03:55:42;15.07;;;8.87;;
549;SDS011;20066;48.764;9.176;2023-06-26T03:59:10;15.30;;;9.40;;
549;SDS011;20066;48.764;9.176;2023-06-26T04:02:39;14.90;;;9.03;;
549;SDS011;20066;48.764;9.176;2023-06-26T04:06:05;14.13;;;9.63;;
549;SDS011;20066;48.764;9.176;2023-06-26T04:09:32;11.63;;;7.93;;
549;SDS011;20066;48.764;9.176;2023-06-26T04:12:58;14.20;;;9.10;;
549;SDS011;20066;48.764;9.176;2023-06-26T04:16:26;13.27;;;8.37;;
549;SDS011;20066;48.764;9.176;2023-06-26T04:19:52;13.17;;;8.53;;
549;SDS011;20066;48.764;9.176;2023-06-26T04:23:32;14.93;;;9.23;;
549;SDS011;20066;48.764;9.176;2023-06-26T04:26:58;14.00;;;8.37;;
549;SDS011;20066;48.764;9.176;2023-06-26T04:30:25;12.07;;;8.10;;
549;SDS011;20066;48.764;9.176;2023-06-26T04:33:53;13.10;;;8.80;;
549;SDS011;20066;48.764;9.176;2023-06-26T04:37:19;14.00;;;8.13;;
549;SDS011;20066;48.764;9.176;2023-06-26T04:40:45;13.50;;;8.60;;
549;SDS011;20066;48.764;9.176;2023-06-26T04:44:12;17.13;;;8.80;;
549;SDS011;20066;48.764;9.176;2023-06-26T04:47:40;14.00;;;8.87;;
549;SDS011;20066;48.764;9.176;2023-06-26T04:51:06;13.33;;;8.43;;
549;SDS011;20066;48.764;9.176;2023-06-26T04:54:32;15.07;;;8.87;;
549;SDS011;20066;48.764;9.176;2023-06-26T04:58:06;14.63;;;9.43;;
549;SDS011;20066;48.764;9.176;2023-06-26T05:01:32;13.47;;;8.47;;
549;SDS011;20066;48.764;9.176;2023-06-26T05:05:00;15.37;;;8.83;;
549;SDS011;20066;48.764;9.176;2023-06-26T05:08:34;16.60;;;8.80;;
549;SDS011;20066;48.764;9.176;2023-06-26T05:12:00;14.43;;;9.00;;
549;SDS011;20066;48.764;9.176;2023-06-26T05:15:28;13.60;;;8.63;;
549;SDS011;20066;48.764;9.176;2023-06-26T05:18:54;14.17;;;8.80;;
549;SDS011;20066;48.764;9.176;2023-06-26T05:22:22;13.87;;;8.80;;
549;SDS011;20066;48.764;9.176;2023-06-26T05:25:52;14.43;;;8.87;;
549;SDS011;20066;48.764;9.176;2023-06-26T05:29:19;14.60;;;7.70;;
549;SDS011;20066;48.764;9.176;2023-06-26T05:32:46;12.67;;;8.20;;
549;SDS011;20066;48.764;9.176;2023-06-26T05:36:13;12.53;;;8.50;;
549;SDS011;20066;48.764;9.176;2023-06-26T05:39:48;12.23;;;8.23;;
549;SDS011;20066;48.764;9.176;2023-06-26T05:43:15;17.40;;;9.10;;
549;SDS011;20066;48.764;9.176;2023-06-26T05:46:41;14.00;;;8.33;;
549;SDS011;20066;48.764;9.176;2023-06-26T05:50:09;15.10;;;9.27;;
549;SDS011;20066;48.764;9.176;2023-06-26T05:53:36;13.33;;;8.07;;
549;SDS011;20066;48.764;9.176;2023-06-26T05:57:05;14.40;;;8.83;;
549;SDS011;20066;48.764;9.176;2023-06-26T06:00:32;17.50;;;8.70;;
549;SDS011;20066;48.764;9.176;2023-06-26T06:03:59;15.63;;;8.50;;
549;SDS011;20066;48.764;9.176;2023-06-26T06:07:26;14.57;;;8.20;;
549;SDS011;20066;48.764;9.176;2023-06-26T06:10:52;17.80;;;8.93;;
549;SDS011;20066;48.764;9.176;2023-06-26T06:14:20;13.00;;;8.30;;
549;SDS011;20066;48.764;9.176;2023-06-26T06:17:46;12.90;;;7.80;;
549;SDS011;20066;48.764;9.176;2023-06-26T06:21:13;13.93;;;8.27;;
549;SDS011;20066;48.764;9.176;2023-06-26T06:24:40;12.10;;;7.40;;
549;SDS011;20066;48.764;9.176;2023-06-26T06:28:06;14.60;;;8.07;;
549;SDS011;20066;48.764;9.176;2023-06-26T06:31:34;14.30;;;8.50;;
549;SDS011;20066;48.764;9.176;2023-06-26T06:35:01;13.43;;;8.00;;
549;SDS011;20066;48.764;9.176;2023-06-26T06:38:27;11.30;;;7.73;;
549;SDS011;20066;48.764;9.176;2023-06-26T06:41:54;18.67;;;9.23;;
549;SDS011;20066;48.764;9.176;2023-06-26T06:45:20;12.17;;;7.70;;
549;SDS011;20066;48.764;9.176;2023-06-26T06:48:48;18.70;;;9.10;;
549;SDS011;20066;48.764;9.176;2023-06-26T06:52:14;19.03;;;9.93;;
549;SDS011;20066;48.764;9.176;2023-06-26T06:55:40;22.27;;;9.83;;
549;SDS011;20066;48.764;9.176;2023-06-26T06:59:07;18.00;;;9.50;;
549;SDS011;20066;48.764;9.176;2023-06-26T07:02:36;13.90;;;8.80;;
549;SDS011;20066;48.764;9.176;2023-06-26T07:06:04;18.10;;;9.13;;
549;SDS011;20066;48.764;9.176;2023-06-26T07:09:30;14.87;;;8.43;;
549;SDS011;20066;48.764;9.176;2023-06-26T07:12:57;13.60;;;8.90;;
549;SDS011;20066;48.764;9.176;2023-06-26T07:16:23;11.93;;;7.80;;
549;SDS011;20066;48.764;9.176;2023-06-26T07:19:50;10.33;;;6.73;;
549;SDS011;20066;48.764;9.176;2023-06-26T07:23:18;17.57;;;9.13;;
549;SDS011;20066;48.764;9.176;2023-06-26T07:26:44;14.60;;;8.60;;
549;SDS011;20066;48.764;9.176;2023-06-26T07:30:11;14.43;;;8.47;;
549;SDS011;20066;48.764;9.176;2023-06-26T07:33:38;13.67;;;8.07;;
549;SDS011;20066;48.764;9.176;2023-06-26T07:37:04;19.87;;;8.70;;
549;SDS011;20066;48.764;9.176;2023-06-26T07:40:32;16.10;;;8.80;;
549;SDS011;20066;48.764;9.176;2023-06-26T07:43:59;11.47;;;7.60;;
549;SDS011;20066;48.764;9.176;2023-06-26T07:47:25;18.53;;;8.73;;
549;SDS011;20066;48.764;9.176;2023-06-26T07:50:52;14.00;;;8.43;;
549;SDS011;20066;48.764;9.176;2023-06-26T07:54:18;17.70;;;8.20;;
549;SDS011;20066;48.764;9.176;2023-06-26T07:57:46;13.23;;;7.80;;
549;SDS011;20066;48.764;9.176;2023-06-26T08:01:23;11.87;;;7.20;;
549;SDS011;20066;48.764;9.176;2023-06-26T08:04:50;16.10;;;7.50;;
549;SDS011;20066;48.764;9.176;2023-06-26T08:08:42;17.43;;;7.60;;
549;SDS011;20066;48.764;9.176;2023-06-26T08:12:08;12.73;;;8.00;;
549;SDS011;20066;48.764;9.176;2023-06-26T08:15:36;12.20;;;7.13;;
549;SDS011;20066;48.764;9.176;2023-06-26T08:19:03;12.80;;;7.37;;
549;SDS011;20066;48.764;9.176;2023-06-26T08:22:30;12.67;;;6.73;;
549;SDS011;20066;48.764;9.176;2023-06-26T08:25:56;11.03;;;7.20;;
549;SDS011;20066;48.764;9.176;2023-06-26T08:29:24;12.83;;;7.63;;
549;SDS011;20066;48.764;9.176;2023-06-26T08:32:54;17.50;;;7.87;;
549;SDS011;20066;48.764;9.176;2023-06-26T08:36:20;13.77;;;7.83;;
549;SDS011;20066;48.764;9.176;2023-06-26T08:39:47;11.03;;;7.30;;
549;SDS011;20066;48.764;9.176;2023-06-26T08:43:14;18.20;;;7.13;;
549;SDS011;20066;48.764;9.176;2023-06-26T08:46:42;12.23;;;6.20;;
549;SDS011;20066;48.764;9.176;2023-06-26T08:50:10;11.70;;;6.40;;
549;SDS011;20066;48.764;9.176;2023-06-26T08:53:40;10.80;;;6.60;;
549;SDS011;20066;48.764;9.176;2023-06-26T08:57:14;9.50;;;6.10;;
549;SDS011;20066;48.764;9.176;2023-06-26T09:00:42;14.50;;;6.37;;
549;SDS011;20066;48.764;9.176;2023-06-26T09:04:11;11.83;;;6.73;;
549;SDS011;20066;48.764;9.176;2023-06-26T09:07:37;9.63;;;6.20;;
549;SDS011;20066;48.764;9.176;2023-06-26T09:11:03;9.83;;;6.40;;
549;SDS011;20066;48.764;9.176;2023-06-26T09:14:30;9.60;;;6.77;;
549;SDS011;20066;48.764;9.176;2023-06-26T09:18:06;8.93;;;5.80;;
549;SDS011;20066;48.764;9.176;2023-06-26T09:21:36;8.10;;;5.80;;
549;SDS011;20066;48.764;9.176;2023-06-26T09:25:05;9.53;;;6.10;;
549;SDS011;20066;48.764;9.176;2023-06-26T09:28:32;10.70;;;6.20;;
549;SDS011;20066;48.764;9.176;2023-06-26T09:32:00;8.10;;;6.13;;
549;SDS011;20066;48.764;9.176;2023-06-26T09:35:41;9.63;;;6.47;;
549;SDS011;20066;48.764;9.176;2023-06-26T09:39:12;10.23;;;6.50;;
549;SDS011;20066;48.764;9.176;2023-06-26T09:42:41;13.33;;;6.50;;
549;SDS011;20066;48.764;9.176;2023-06-26T09:46:14;8.10;;;6.20;;
549;SDS011;20066;48.764;9.176;2023-06-26T09:49:43;8.90;;;5.97;;
549;SDS011;20066;48.764;9.176;2023-06-26T09:53:31;9.77;;;6.10;;
549;SDS011;20066;48.764;9.176;2023-06-26T09:57:07;10.37;;;6.23;;
549;SDS011;20066;48.764;9.176;2023-06-26T10:00:34;8.53;;;6.33;;
549;SDS011;20066;48.764;9.176;2023-06-26T10:04:01;18.20;;;6.37;;
549;SDS011;20066;48.764;9.176;2023-06-26T10:07:28;12.20;;;6.80;;
549;SDS011;20066;48.764;9.176;2023-06-26T10:10:55;10.30;;;6.53;;
549;SDS011;20066;48.764;9.176;2023-06-26T10:14:25;9.57;;;6.87;;
549;SDS011;20066;48.764;9.176;2023-06-26T10:17:52;12.53;;;6.60;;
549;SDS011;20066;48.764;9.176;2023-06-26T10:21:24;9.27;;;6.40;;
549;SDS011;20066;48.764;9.176;2023-06-26T10:24:58;13.60;;;7.53;;
549;SDS011;20066;48.764;9.176;2023-06-26T10:28:29;10.27;;;7.13;;
549;SDS011;20066;48.764;9.176;2023-06-26T10:32:00;14.63;;;7.97;;
549;SDS011;20066;48.764;9.176;2023-06-26T10:35:30;13.53;;;7.37;;
549;SDS011;20066;48.764;9.176;2023-06-26T10:38:58;11.60;;;7.70;;
549;SDS011;20066;48.764;9.176;2023-06-26T10:42:34;14.03;;;8.67;;
549;SDS011;20066;48.764;9.176;2023-06-26T10:46:00;16.17;;;7.80;;
549;SDS011;20066;48.764;9.176;2023-06-26T10:49:28;10.07;;;6.63;;
549;SDS011;20066;48.764;9.176;2023-06-26T10:53:10;12.80;;;7.80;;
549;SDS011;20066;48.764;9.176;2023-06-26T10:56:42;12.03;;;8.00;;
549;SDS011;20066;48.764;9.176;2023-06-26T11:00:15;14.43;;;8.23;;
549;SDS011;20066;48.764;9.176;2023-06-26T11:03:44;13.57;;;7.90;;
549;SDS011;20066;48.764;9.176;2023-06-26T11:07:15;16.50;;;8.23;;
549;SDS011;20066;48.764;9.176;2023-06-26T11:10:48;12.00;;;7.63;;
549;SDS011;20066;48.764;9.176;2023-06-26T11:14:34;13.67;;;8.23;;
549;SDS011;20066;48.764;9.176;2023-06-26T11:18:01;11.33;;;7.40;;
549;SDS011;20066;48.764;9.176;2023-06-26T11:21:28;12.50;;;7.83;;
549;SDS011;20066;48.764;9.176;2023-06-26T11:24:55;10.30;;;7.63;;
549;SDS011;20066;48.764;9.176;2023-06-26T11:28:26;11.60;;;8.00;;
549;SDS011;20066;48.764;9.176;2023-06-26T11:31:57;11.57;;;7.00;;
549;SDS011;20066;48.764;9.176;2023-06-26T11:35:31;11.87;;;8.27;;
549;SDS011;20066;48.764;9.176;2023-06-26T11:38:59;10.70;;;7.77;;
549;SDS011;20066;48.764;9.176;2023-06-26T11:42:25;14.40;;;6.73;;
549;SDS011;20066;48.764;9.176;2023-06-26T11:45:53;12.13;;;7.20;;
549;SDS011;20066;48.764;9.176;2023-06-26T11:49:22;11.50;;;7.43;;
549;SDS011;20066;48.764;9.176;2023-06-26T11:52:52;15.00;;;7.23;;
549;SDS011;20066;48.764;9.176;2023-06-26T11:56:19;11.67;;;7.80;;
549;SDS011;20066;48.764;9.176;2023-06-26T11:59:49;10.17;;;7.13;;
549;SDS011;20066;48.764;9.176;2023-06-26T12:03:17;11.80;;;8.10;;
549;SDS011;20066;48.764;9.176;2023-06-26T12:06:46;9.83;;;7.77;;
549;SDS011;20066;48.764;9.176;2023-06-26T12:10:14;11.37;;;7.30;;
549;SDS011;20066;48.764;9.176;2023-06-26T12:13:45;14.43;;;8.10;;
549;SDS011;20066;48.764;9.176;2023-06-26T12:17:12;10.47;;;6.80;;
549;SDS011;20066;48.764;9.176;2023-06-26T12:20:40;15.70;;;7.13;;
549;SDS011;20066;48.764;9.176;2023-06-26T12:24:19;12.37;;;7.70;;
549;SDS011;20066;48.764;9.176;2023-06-26T12:27:50;12.73;;;7.20;;
549;SDS011;20066;48.764;9.176;2023-06-26T12:31:20;14.23;;;7.50;;
549;SDS011;20066;48.764;9.176;2023-06-26T12:34:49;15.43;;;7.43;;
549;SDS011;20066;48.764;9.176;2023-06-26T12:38:17;12.20;;;7.10;;
549;SDS011;20066;48.764;9.176;2023-06-26T12:41:47;12.07;;;7.00;;
549;SDS011;20066;48.764;9.176;2023-06-26T12:45:14;10.67;;;6.90;;
549;SDS011;20066;48.764;9.176;2023-06-26T12:48:41;11.70;;;7.30;;
549;SDS011;20066;48.764;9.176;2023-06-26T12:52:10;16.60;;;8.00;;
549;SDS011;20066;48.764;9.176;2023-06-26T12:55:36;14.30;;;7.67;;
549;SDS011;20066;48.764;9.176;2023-06-26T12:59:03;13.57;;;7.97;;
549;SDS011;20066;48.764;9.176;2023-06-26T13:02:29;13.80;;;7.30;;
549;SDS011;20066;48.764;9.176;2023-06-26T13:05:59;10.87;;;7.03;;
549;SDS011;20066;48.764;9.176;2023-06-26T13:09:27;16.80;;;6.93;;
549;SDS011;20066;48.764;9.176;2023-06-26T13:12:55;10.40;;;6.83;;
549;SDS011;20066;48.764;9.176;2023-06-26T13:16:36;12.57;;;6.97;;
549;SDS011;20066;48.764;9.176;2023-06-26T13:20:02;10.67;;;6.73;;
549;SDS011;20066;48.764;9.176;2023-06-26T13:23:29;14.80;;;7.03;;
549;SDS011;20066;48.764;9.176;2023-06-26T13:26:57;12.87;;;6.17;;
549;SDS011;20066;48.764;9.176;2023-06-26T13:30:23;9.70;;;6.47;;
549;SDS011;20066;48.764;9.176;2023-06-26T13:33:50;9.70;;;6.00;;
549;SDS011;20066;48.764;9.176;2023-06-26T13:37:16;10.90;;;6.50;;
549;SDS011;20066;48.764;9.176;2023-06-26T13:40:45;11.10;;;5.50;;
549;SDS011;20066;48.764;9.176;2023-06-26T13:44:12;9.33;;;5.97;;
549;SDS011;20066;48.764;9.176;2023-06-26T13:47:56;12.10;;;6.77;;
549;SDS011;20066;48.764;9.176;2023-06-26T13:51:22;9.07;;;5.80;;
549;SDS011;20066;48.764;9.176;2023-06-26T13:54:48;8.73;;;5.60;;
549;SDS011;20066;48.764;9.176;2023-06-26T13:58:16;9.30;;;5.17;;
549;SDS011;20066;48.764;9.176;2023-06-26T14:01:44;8.90;;;5.60;;
549;SDS011;20066;48.764;9.176;2023-06-26T14:05:11;8.77;;;5.50;;
549;SDS011;20066;48.764;9.176;2023-06-26T14:08:37;9.37;;;5.50;;
549;SDS011;20066;48.764;9.176;2023-06-26T14:12:05;9.23;;;5.70;;
549;SDS011;20066;48.764;9.176;2023-06-26T14:15:32;7.73;;;4.57;;
549;SDS011;20066;48.764;9.176;2023-06-26T14:18:59;9.00;;;4.70;;
549;SDS011;20066;48.764;9.176;2023-06-26T14:22:26;8.37;;;5.27;;
549;SDS011;20066;48.764;9.176;2023-06-26T14:25:52;8.77;;;5.10;;
549;SDS011;20066;48.764;9.176;2023-06-26T14:29:20;7.20;;;4.60;;
549;SDS011;20066;48.764;9.176;2023-06-26T14:32:46;14.40;;;4.40;;
549;SDS011;20066;48.764;9.176;2023-06-26T14:36:13;10.67;;;4.50;;
549;SDS011;20066;48.764;9.176;2023-06-26T14:39:39;7.23;;;4.27;;
549;SDS011;20066;48.764;9.176;2023-06-26T14:43:06;5.53;;;3.87;;
549;SDS011;20066;48.764;9.176;2023-06-26T14:46:36;5.70;;;3.70;;
549;SDS011;20066;48.764;9.176;2023-06-26T14:50:03;10.50;;;4.60;;
549;SDS011;20066;48.764;9.176;2023-06-26T14:53:29;6.23;;;3.90;;
549;SDS011;20066;48.764;9.176;2023-06-26T14:56:59;10.00;;;4.47;;
549;SDS011;20066;48.764;9.176;2023-06-26T15:00:28;7.13;;;3.93;;
549;SDS011;20066;48.764;9.176;2023-06-26T15:03:56;8.43;;;4.27;;
549;SDS011;20066;48.764;9.176;2023-06-26T15:07:22;8.70;;;4.03;;
549;SDS011;20066;48.764;9.176;2023-06-26T15:10:48;8.80;;;4.73;;
549;SDS011;20066;48.764;9.176;2023-06-26T15:14:15;11.00;;;4.33;;
549;SDS011;20066;48.764;9.176;2023-06-26T15:17:43;7.97;;;4.40;;
549;SDS011;20066;48.764;9.176;2023-06-26T15:21:11;10.13;;;4.57;;
549;SDS011;20066;48.764;9.176;2023-06-26T15:24:37;8.00;;;4.80;;
549;SDS011;20066;48.764;9.176;2023-06-26T15:28:04;7.93;;;4.77;;
549;SDS011;20066;48.764;9.176;2023-06-26T15:31:31;13.80;;;4.60;;
549;SDS011;20066;48.764;9.176;2023-06-26T15:34:57;8.70;;;4.80;;
549;SDS011;20066;48.764;9.176;2023-06-26T15:38:25;10.07;;;5.57;;
549;SDS011;20066;48.764;9.176;2023-06-26T15:41:51;7.77;;;4.53;;
549;SDS011;20066;48.764;9.176;2023-06-26T15:45:19;8.40;;;5.43;;
549;SDS011;20066;48.764;9.176;2023-06-26T15:48:45;10.33;;;5.37;;
549;SDS011;20066;48.764;9.176;2023-06-26T15:52:11;9.30;;;6.13;;
549;SDS011;20066;48.764;9.176;2023-06-26T15:55:44;9.53;;;6.20;;
549;SDS011;20066;48.764;9.176;2023-06-26T15:59:10;14.30;;;6.80;;
549;SDS011;20066;48.764;9.176;2023-06-26T16:02:38;10.00;;;6.50;;
549;SDS011;20066;48.764;9.176;2023-06-26T16:06:05;9.60;;;6.70;;
549;SDS011;20066;48.764;9.176;2023-06-26T16:09:32;8.90;;;5.93;;
549;SDS011;20066;48.764;9.176;2023-06-26T16:12:59;14.87;;;7.10;;
549;SDS011;20066;48.764;9.176;2023-06-26T16:16:26;11.83;;;6.20;;
549;SDS011;20066;48.764;9.176;2023-06-26T16:19:52;16.00;;;6.70;;
549;SDS011;20066;48.764;9.176;2023-06-26T16:23:19;12.43;;;7.60;;
549;SDS011;20066;48.764;9.176;2023-06-26T16:26:45;12.87;;;6.90;;
549;SDS011;20066;48.764;9.176;2023-06-26T16:30:14;11.70;;;6.90;;
549;SDS011;20066;48.764;9.176;2023-06-26T16:33:40;29.77;;;20.50;;
549;SDS011;20066;48.764;9.176;2023-06-26T16:37:07;13.77;;;6.83;;
549;SDS011;20066;48.764;9.176;2023-06-26T16:40:35;12.67;;;7.30;;
549;SDS011;20066;48.764;9.176;2023-06-26T16:44:02;11.00;;;6.40;;
549;SDS011;20066;48.764;9.176;2023-06-26T16:47:29;9.97;;;5.73;;
549;SDS011;20066;48.764;9.176;2023-06-26T16:50:55;12.07;;;6.97;;
549;SDS011;20066;48.764;9.176;2023-06-26T16:54:23;12.63;;;6.37;;
549;SDS011;20066;48.764;9.176;2023-06-26T16:57:50;8.43;;;5.37;;
549;SDS011;20066;48.764;9.176;2023-06-26T17:01:16;9.33;;;4.83;;
549;SDS011;20066;48.764;9.176;2023-06-26T17:04:45;9.23;;;4.10;;
549;SDS011;20066;48.764;9.176;2023-06-26T17:08:11;7.57;;;4.27;;
549;SDS011;20066;48.764;9.176;2023-06-26T17:11:38;7.20;;;4.20;;
549;SDS011;20066;48.764;9.176;2023-06-26T17:15:06;8.43;;;4.17;;
549;SDS011;20066;48.764;9.176;2023-06-26T17:18:32;6.40;;;3.50;;
549;SDS011;20066;48.764;9.176;2023-06-26T17:22:01;10.53;;;3.20;;
549;SDS011;20066;48.764;9.176;2023-06-26T17:25:28;9.20;;;3.13;;
549;SDS011;20066;48.764;9.176;2023-06-26T17:28:55;7.63;;;2.90;;
549;SDS011;20066;48.764;9.176;2023-06-26T17:32:22;7.63;;;2.67;;
549;SDS011;20066;48.764;9.176;2023-06-26T17:35:48;7.40;;;3.20;;
549;SDS011;20066;48.764;9.176;2023-06-26T17:39:16;9.57;;;5.83;;
549;SDS011;20066;48.764;9.176;2023-06-26T17:42:42;10.90;;;3.80;;
549;SDS011;20066;48.764;9.176;2023-06-26T17:46:09;8.47;;;4.20;;
549;SDS011;20066;48.764;9.176;2023-06-26T17:49:35;4.00;;;2.23;;
549;SDS011;20066;48.764;9.176;2023-06-26T17:53:02;5.40;;;2.60;;
549;SDS011;20066;48.764;9.176;2023-06-26T17:56:29;8.87;;;3.20;;
549;SDS011;20066;48.764;9.176;2023-06-26T17:59:56;5.63;;;2.80;;
549;SDS011;20066;48.764;9.176;2023-06-26T18:03:22;5.60;;;2.77;;
549;SDS011;20066;48.764;9.176;2023-06-26T18:06:48;4.80;;;2.50;;
549;SDS011;20066;48.764;9.176;2023-06-26T18:10:29;4.70;;;2.90;;
549;SDS011;20066;48.764;9.176;2023-06-26T18:13:57;5.20;;;2.53;;
549;SDS011;20066;48.764;9.176;2023-06-26T18:17:25;5.50;;;2.73;;
549;SDS011;20066;48.764;9.176;2023-06-26T18:20:51;11.13;;;2.80;;
549;SDS011;20066;48.764;9.176;2023-06-26T18:24:17;5.67;;;3.07;;
549;SDS011;20066;48.764;9.176;2023-06-26T18:27:45;7.00;;;2.90;;
549;SDS011;20066;48.764;9.176;2023-06-26T18:31:11;5.47;;;2.67;;
549;SDS011;20066;48.764;9.176;2023-06-26T18:34:38;4.43;;;2.40;;
549;SDS011;20066;48.764;9.176;2023-06-26T18:38:04;10.13;;;2.70;;
549;SDS011;20066;48.764;9.176;2023-06-26T18:41:31;6.60;;;3.00;;
549;SDS011;20066;48.764;9.176;2023-06-26T18:44:58;4.10;;;2.50;;
549;SDS011;20066;48.764;9.176;2023-06-26T18:48:24;5.30;;;2.90;;
549;SDS011;20066;48.764;9.176;2023-06-26T18:51:51;8.57;;;2.70;;
549;SDS011;20066;48.764;9.176;2023-06-26T18:55:17;7.47;;;2.83;;
549;SDS011;20066;48.764;9.176;2023-06-26T18:58:43;6.20;;;2.90;;
549;SDS011;20066;48.764;9.176;2023-06-26T19:02:11;6.90;;;2.90;;
549;SDS011;20066;48.764;9.176;2023-06-26T19:05:37;6.97;;;2.83;;
549;SDS011;20066;48.764;9.176;2023-06-26T19:09:03;7.93;;;3.50;;
549;SDS011;20066;48.764;9.176;2023-06-26T19:12:34;5.23;;;2.40;;
549;SDS011;20066;48.764;9.176;2023-06-26T19:16:00;7.80;;;2.97;;
549;SDS011;20066;48.764;9.176;2023-06-26T19:19:28;8.20;;;3.00;;
549;SDS011;20066;48.764;9.176;2023-06-26T19:22:54;8.57;;;2.80;;
549;SDS011;20066;48.764;9.176;2023-06-26T19:26:20;13.27;;;2.70;;
549;SDS011;20066;48.764;9.176;2023-06-26T19:29:47;10.63;;;3.37;;
549;SDS011;20066;48.764;9.176;2023-06-26T19:33:13;7.23;;;3.00;;
549;SDS011;20066;48.764;9.176;2023-06-26T19:36:45;4.50;;;2.57;;
549;SDS011;20066;48.764;9.176;2023-06-26T19:40:30;11.03;;;3.20;;
549;SDS011;20066;48.764;9.176;2023-06-26T19:43:56;4.90;;;2.63;;
549;SDS011;20066;48.764;9.176;2023-06-26T19:47:22;8.03;;;2.97;;
549;SDS011;20066;48.764;9.176;2023-06-26T19:50:49;6.57;;;2.73;;
549;SDS011;20066;48.764;9.176;2023-06-26T19:54:17;6.83;;;2.87;;
549;SDS011;20066;48.764;9.176;2023-06-26T19:57:43;5.97;;;2.50;;
549;SDS011;20066;48.764;9.176;2023-06-26T20:01:10;12.77;;;3.73;;
549;SDS011;20066;48.764;9.176;2023-06-26T20:04:37;3.90;;;2.40;;
549;SDS011;20066;48.764;9.176;2023-06-26T20:08:05;9.13;;;3.33;;
549;SDS011;20066;48.764;9.176;2023-06-26T20:11:32;4.53;;;2.83;;
549;SDS011;20066;48.764;9.176;2023-06-26T20:14:59;5.60;;;2.77;;
549;SDS011;20066;48.764;9.176;2023-06-26T20:18:25;7.07;;;2.57;;
549;SDS011;20066;48.764;9.176;2023-06-26T20:21:54;10.13;;;2.83;;
549;SDS011;20066;48.764;9.176;2023-06-26T20:25:24;4.00;;;2.77;;
549;SDS011;20066;48.764;9.176;2023-06-26T20:28:51;5.73;;;2.50;;
549;SDS011;20066;48.764;9.176;2023-06-26T20:32:17;4.40;;;2.60;;
549;SDS011;20066;48.764;9.176;2023-06-26T20:35:44;4.60;;;2.80;;
549;SDS011;20066;48.764;9.176;2023-06-26T20:39:10;6.73;;;2.53;;
549;SDS011;20066;48.764;9.176;2023-06-26T20:42:39;8.23;;;2.50;;
549;SDS011;20066;48.764;9.176;2023-06-26T20:46:05;6.20;;;2.50;;
549;SDS011;20066;48.764;9.176;2023-06-26T20:49:36;5.40;;;2.80;;
549;SDS011;20066;48.764;9.176;2023-06-26T20:53:03;6.23;;;2.73;;
549;SDS011;20066;48.764;9.176;2023-06-26T20:56:30;4.87;;;2.60;;
549;SDS011;20066;48.764;9.176;2023-06-26T20:59:59;5.60;;;2.37;;
549;SDS011;20066;48.764;9.176;2023-06-26T21:03:25;8.37;;;3.10;;
549;SDS011;20066;48.764;9.176;2023-06-26T21:06:51;8.17;;;3.27;;
549;SDS011;20066;48.764;9.176;2023-06-26T21:10:18;8.53;;;3.07;;
549;SDS011;20066;48.764;9.176;2023-06-26T21:13:44;6.37;;;2.77;;
549;SDS011;20066;48.764;9.176;2023-06-26T21:17:11;11.30;;;3.10;;